sensor_id;sensor_type;location;lat;lon;timestamp;P1;durP1;ratioP1;P2;durP2;ratioP2
53519;SDS011;39397;53.204;5.778;2022-10-24T00:00:30;13.00;;;2.65;;
53519;SDS011;39397;53.204;5.778;2022-10-24T00:02:57;5.32;;;2.20;;
53519;SDS011;39397;53.204;5.778;2022-10-24T00:05:24;6.03;;;2.30;;
53519;SDS011;39397;53.204;5.778;2022-10-24T00:07:50;6.32;;;2.63;;
53519;SDS011;39397;53.204;5.778;2022-10-24T00:10:17;4.95;;;2.00;;
53519;SDS011;39397;53.204;5.778;2022-10-24T00:12:43;4.30;;;2.10;;
53519;SDS011;39397;53.204;5.778;2022-10-24T00:15:10;6.60;;;2.65;;
53519;SDS011;39397;53.204;5.778;2022-10-24T00:17:36;6.55;;;2.20;;
53519;SDS011;39397;53.204;5.778;2022-10-24T00:20:02;5.28;;;1.98;;
53519;SDS011;39397;53.204;5.778;2022-10-24T00:22:29;6.72;;;2.28;;
53519;SDS011;39397;53.204;5.778;2022-10-24T00:24:55;8.43;;;1.90;;
53519;SDS011;39397;53.204;5.778;2022-10-24T00:27:21;8.35;;;2.10;;
53519;SDS011;39397;53.204;5.778;2022-10-24T00:29:47;5.25;;;1.90;;
53519;SDS011;39397;53.204;5.778;2022-10-24T00:32:12;4.35;;;1.73;;
53519;SDS011;39397;53.204;5.778;2022-10-24T00:34:38;8.75;;;2.03;;
53519;SDS011;39397;53.204;5.778;2022-10-24T00:37:04;6.25;;;1.60;;
53519;SDS011;39397;53.204;5.778;2022-10-24T00:39:30;8.18;;;1.92;;
53519;SDS011;39397;53.204;5.778;2022-10-24T00:41:56;6.60;;;1.60;;
53519;SDS011;39397;53.204;5.778;2022-10-24T00:47:12;7.00;;;2.15;;
53519;SDS011;39397;53.204;5.778;2022-10-24T00:52:36;4.90;;;1.67;;
53519;SDS011;39397;53.204;5.778;2022-10-24T00:55:06;6.68;;;1.80;;
53519;SDS011;39397;53.204;5.778;2022-10-24T00:57:38;4.68;;;1.58;;
53519;SDS011;39397;53.204;5.778;2022-10-24T01:00:09;5.20;;;2.17;;
53519;SDS011;39397;53.204;5.778;2022-10-24T01:02:41;7.05;;;2.10;;
53519;SDS011;39397;53.204;5.778;2022-10-24T01:05:08;8.25;;;2.00;;
53519;SDS011;39397;53.204;5.778;2022-10-24T01:18:16;7.28;;;1.90;;
53519;SDS011;39397;53.204;5.778;2022-10-24T01:21:00;9.85;;;1.90;;
53519;SDS011;39397;53.204;5.778;2022-10-24T01:29:15;6.55;;;2.00;;
53519;SDS011;39397;53.204;5.778;2022-10-24T01:37:29;6.05;;;1.80;;
53519;SDS011;39397;53.204;5.778;2022-10-24T01:40:05;7.88;;;1.77;;
53519;SDS011;39397;53.204;5.778;2022-10-24T01:42:37;8.13;;;2.10;;
53519;SDS011;39397;53.204;5.778;2022-10-24T01:45:04;6.72;;;2.17;;
53519;SDS011;39397;53.204;5.778;2022-10-24T01:47:33;5.72;;;1.77;;
53519;SDS011;39397;53.204;5.778;2022-10-24T01:50:05;5.97;;;1.95;;
53519;SDS011;39397;53.204;5.778;2022-10-24T01:52:35;8.02;;;2.35;;
53519;SDS011;39397;53.204;5.778;2022-10-24T01:55:03;7.40;;;2.22;;
53519;SDS011;39397;53.204;5.778;2022-10-24T01:57:31;6.63;;;1.85;;
53519;SDS011;39397;53.204;5.778;2022-10-24T01:59:58;6.93;;;1.67;;
53519;SDS011;39397;53.204;5.778;2022-10-24T02:05:04;11.00;;;2.17;;
53519;SDS011;39397;53.204;5.778;2022-10-24T02:07:35;7.20;;;1.90;;
53519;SDS011;39397;53.204;5.778;2022-10-24T02:10:06;7.40;;;1.90;;
53519;SDS011;39397;53.204;5.778;2022-10-24T02:12:47;9.20;;;2.00;;
53519;SDS011;39397;53.204;5.778;2022-10-24T02:15:20;6.32;;;1.98;;
53519;SDS011;39397;53.204;5.778;2022-10-24T02:17:53;5.78;;;2.10;;
53519;SDS011;39397;53.204;5.778;2022-10-24T02:20:28;10.40;;;2.30;;
53519;SDS011;39397;53.204;5.778;2022-10-24T02:23:01;9.70;;;2.00;;
53519;SDS011;39397;53.204;5.778;2022-10-24T02:25:33;5.80;;;2.20;;
53519;SDS011;39397;53.204;5.778;2022-10-24T02:28:08;6.85;;;2.20;;
53519;SDS011;39397;53.204;5.778;2022-10-24T02:30:38;6.60;;;2.17;;
53519;SDS011;39397;53.204;5.778;2022-10-24T02:33:10;9.93;;;2.10;;
53519;SDS011;39397;53.204;5.778;2022-10-24T02:35:37;8.70;;;2.30;;
53519;SDS011;39397;53.204;5.778;2022-10-24T02:38:08;6.95;;;2.10;;
53519;SDS011;39397;53.204;5.778;2022-10-24T02:40:39;5.15;;;2.10;;
53519;SDS011;39397;53.204;5.778;2022-10-24T02:43:07;7.78;;;2.90;;
53519;SDS011;39397;53.204;5.778;2022-10-24T02:45:34;5.35;;;2.00;;
53519;SDS011;39397;53.204;5.778;2022-10-24T02:48:02;7.10;;;2.30;;
53519;SDS011;39397;53.204;5.778;2022-10-24T02:50:32;11.43;;;2.45;;
53519;SDS011;39397;53.204;5.778;2022-10-24T02:52:59;6.50;;;2.08;;
53519;SDS011;39397;53.204;5.778;2022-10-24T02:55:25;6.93;;;2.10;;
53519;SDS011;39397;53.204;5.778;2022-10-24T02:57:50;7.93;;;2.20;;
53519;SDS011;39397;53.204;5.778;2022-10-24T03:00:16;5.97;;;1.83;;
53519;SDS011;39397;53.204;5.778;2022-10-24T03:02:42;8.00;;;2.05;;
53519;SDS011;39397;53.204;5.778;2022-10-24T03:05:08;7.63;;;2.25;;
53519;SDS011;39397;53.204;5.778;2022-10-24T03:07:34;6.65;;;2.30;;
53519;SDS011;39397;53.204;5.778;2022-10-24T03:09:59;7.80;;;1.92;;
53519;SDS011;39397;53.204;5.778;2022-10-24T03:12:25;12.82;;;2.28;;
53519;SDS011;39397;53.204;5.778;2022-10-24T03:14:51;8.15;;;2.10;;
53519;SDS011;39397;53.204;5.778;2022-10-24T03:17:17;9.80;;;2.58;;
53519;SDS011;39397;53.204;5.778;2022-10-24T03:19:42;8.63;;;2.35;;
53519;SDS011;39397;53.204;5.778;2022-10-24T03:22:09;8.63;;;2.15;;
53519;SDS011;39397;53.204;5.778;2022-10-24T03:24:35;7.05;;;1.70;;
53519;SDS011;39397;53.204;5.778;2022-10-24T03:27:00;5.15;;;2.58;;
53519;SDS011;39397;53.204;5.778;2022-10-24T03:29:27;8.68;;;1.67;;
53519;SDS011;39397;53.204;5.778;2022-10-24T03:31:52;9.05;;;2.35;;
53519;SDS011;39397;53.204;5.778;2022-10-24T03:34:18;6.05;;;1.75;;
53519;SDS011;39397;53.204;5.778;2022-10-24T03:36:44;8.90;;;1.75;;
53519;SDS011;39397;53.204;5.778;2022-10-24T03:39:09;7.45;;;2.53;;
53519;SDS011;39397;53.204;5.778;2022-10-24T03:41:35;6.00;;;1.60;;
53519;SDS011;39397;53.204;5.778;2022-10-24T03:44:01;6.53;;;1.80;;
53519;SDS011;39397;53.204;5.778;2022-10-24T03:46:26;7.80;;;1.70;;
53519;SDS011;39397;53.204;5.778;2022-10-24T03:48:52;7.03;;;1.70;;
53519;SDS011;39397;53.204;5.778;2022-10-24T03:51:18;9.52;;;2.03;;
53519;SDS011;39397;53.204;5.778;2022-10-24T03:53:44;8.70;;;2.08;;
53519;SDS011;39397;53.204;5.778;2022-10-24T03:56:09;11.13;;;1.80;;
53519;SDS011;39397;53.204;5.778;2022-10-24T03:58:35;8.60;;;2.30;;
53519;SDS011;39397;53.204;5.778;2022-10-24T04:01:01;5.05;;;1.80;;
53519;SDS011;39397;53.204;5.778;2022-10-24T04:03:27;8.50;;;1.77;;
53519;SDS011;39397;53.204;5.778;2022-10-24T04:05:53;6.82;;;2.05;;
53519;SDS011;39397;53.204;5.778;2022-10-24T04:08:18;7.28;;;1.60;;
53519;SDS011;39397;53.204;5.778;2022-10-24T04:10:45;8.35;;;2.08;;
53519;SDS011;39397;53.204;5.778;2022-10-24T04:13:11;5.22;;;1.63;;
53519;SDS011;39397;53.204;5.778;2022-10-24T04:15:37;7.53;;;1.92;;
53519;SDS011;39397;53.204;5.778;2022-10-24T04:18:02;9.75;;;2.10;;
53519;SDS011;39397;53.204;5.778;2022-10-24T04:20:28;4.90;;;1.48;;
53519;SDS011;39397;53.204;5.778;2022-10-24T04:22:54;6.63;;;1.95;;
53519;SDS011;39397;53.204;5.778;2022-10-24T04:25:20;4.88;;;1.42;;
53519;SDS011;39397;53.204;5.778;2022-10-24T04:27:46;11.70;;;2.85;;
53519;SDS011;39397;53.204;5.778;2022-10-24T04:30:12;13.93;;;2.95;;
53519;SDS011;39397;53.204;5.778;2022-10-24T04:32:38;7.22;;;1.83;;
53519;SDS011;39397;53.204;5.778;2022-10-24T04:35:04;7.18;;;2.10;;
53519;SDS011;39397;53.204;5.778;2022-10-24T04:37:31;11.10;;;2.30;;
53519;SDS011;39397;53.204;5.778;2022-10-24T04:39:57;6.32;;;2.42;;
53519;SDS011;39397;53.204;5.778;2022-10-24T04:42:23;4.55;;;1.75;;
53519;SDS011;39397;53.204;5.778;2022-10-24T04:44:49;8.05;;;1.73;;
53519;SDS011;39397;53.204;5.778;2022-10-24T04:47:15;10.75;;;1.83;;
53519;SDS011;39397;53.204;5.778;2022-10-24T04:49:41;7.28;;;1.80;;
53519;SDS011;39397;53.204;5.778;2022-10-24T04:52:07;7.85;;;2.13;;
53519;SDS011;39397;53.204;5.778;2022-10-24T04:54:33;7.97;;;2.00;;
53519;SDS011;39397;53.204;5.778;2022-10-24T04:56:58;8.85;;;1.90;;
53519;SDS011;39397;53.204;5.778;2022-10-24T04:59:24;6.53;;;2.08;;
53519;SDS011;39397;53.204;5.778;2022-10-24T05:01:50;6.13;;;1.65;;
53519;SDS011;39397;53.204;5.778;2022-10-24T05:04:16;4.53;;;1.70;;
53519;SDS011;39397;53.204;5.778;2022-10-24T05:06:41;6.78;;;1.48;;
53519;SDS011;39397;53.204;5.778;2022-10-24T05:09:07;6.22;;;1.30;;
53519;SDS011;39397;53.204;5.778;2022-10-24T05:11:33;5.75;;;1.60;;
53519;SDS011;39397;53.204;5.778;2022-10-24T05:13:59;7.65;;;1.50;;
53519;SDS011;39397;53.204;5.778;2022-10-24T05:16:25;10.60;;;1.40;;
53519;SDS011;39397;53.204;5.778;2022-10-24T05:18:50;5.90;;;1.33;;
53519;SDS011;39397;53.204;5.778;2022-10-24T05:21:16;8.77;;;1.75;;
53519;SDS011;39397;53.204;5.778;2022-10-24T05:23:42;8.02;;;1.20;;
53519;SDS011;39397;53.204;5.778;2022-10-24T05:26:08;7.72;;;1.48;;
53519;SDS011;39397;53.204;5.778;2022-10-24T05:28:34;4.60;;;1.42;;
53519;SDS011;39397;53.204;5.778;2022-10-24T05:31:00;6.57;;;1.38;;
53519;SDS011;39397;53.204;5.778;2022-10-24T05:33:25;8.48;;;1.55;;
53519;SDS011;39397;53.204;5.778;2022-10-24T05:35:51;7.25;;;1.70;;
53519;SDS011;39397;53.204;5.778;2022-10-24T05:38:17;6.97;;;1.45;;
53519;SDS011;39397;53.204;5.778;2022-10-24T05:40:43;5.63;;;1.38;;
53519;SDS011;39397;53.204;5.778;2022-10-24T05:43:12;6.63;;;1.45;;
53519;SDS011;39397;53.204;5.778;2022-10-24T05:45:38;6.15;;;1.40;;
53519;SDS011;39397;53.204;5.778;2022-10-24T05:48:03;9.30;;;1.83;;
53519;SDS011;39397;53.204;5.778;2022-10-24T05:50:29;7.18;;;1.42;;
53519;SDS011;39397;53.204;5.778;2022-10-24T05:52:55;11.18;;;1.58;;
53519;SDS011;39397;53.204;5.778;2022-10-24T05:55:21;9.40;;;2.63;;
53519;SDS011;39397;53.204;5.778;2022-10-24T05:57:46;6.95;;;1.52;;
53519;SDS011;39397;53.204;5.778;2022-10-24T06:00:13;6.50;;;1.42;;
53519;SDS011;39397;53.204;5.778;2022-10-24T06:02:40;9.45;;;1.50;;
53519;SDS011;39397;53.204;5.778;2022-10-24T06:05:06;5.78;;;1.17;;
53519;SDS011;39397;53.204;5.778;2022-10-24T06:07:33;7.20;;;1.38;;
53519;SDS011;39397;53.204;5.778;2022-10-24T06:09:59;7.57;;;1.30;;
53519;SDS011;39397;53.204;5.778;2022-10-24T06:12:26;7.88;;;1.38;;
53519;SDS011;39397;53.204;5.778;2022-10-24T06:14:55;6.30;;;2.17;;
53519;SDS011;39397;53.204;5.778;2022-10-24T06:17:22;6.32;;;1.10;;
53519;SDS011;39397;53.204;5.778;2022-10-24T06:19:48;6.10;;;1.40;;
53519;SDS011;39397;53.204;5.778;2022-10-24T06:22:16;9.32;;;1.38;;
53519;SDS011;39397;53.204;5.778;2022-10-24T06:24:43;8.85;;;1.38;;
53519;SDS011;39397;53.204;5.778;2022-10-24T06:27:08;11.15;;;1.55;;
53519;SDS011;39397;53.204;5.778;2022-10-24T06:29:34;7.97;;;1.48;;
53519;SDS011;39397;53.204;5.778;2022-10-24T06:32:00;7.03;;;1.42;;
53519;SDS011;39397;53.204;5.778;2022-10-24T06:34:27;6.75;;;1.15;;
53519;SDS011;39397;53.204;5.778;2022-10-24T06:36:53;6.57;;;1.15;;
53519;SDS011;39397;53.204;5.778;2022-10-24T06:39:18;7.40;;;1.30;;
53519;SDS011;39397;53.204;5.778;2022-10-24T06:41:45;8.02;;;1.00;;
53519;SDS011;39397;53.204;5.778;2022-10-24T06:44:10;9.02;;;1.10;;
53519;SDS011;39397;53.204;5.778;2022-10-24T06:46:36;7.95;;;1.08;;
53519;SDS011;39397;53.204;5.778;2022-10-24T06:49:02;11.73;;;1.40;;
53519;SDS011;39397;53.204;5.778;2022-10-24T06:51:27;7.65;;;1.45;;
53519;SDS011;39397;53.204;5.778;2022-10-24T06:53:53;7.47;;;1.45;;
53519;SDS011;39397;53.204;5.778;2022-10-24T06:56:19;7.82;;;1.40;;
53519;SDS011;39397;53.204;5.778;2022-10-24T06:58:45;6.32;;;1.30;;
53519;SDS011;39397;53.204;5.778;2022-10-24T07:01:12;8.50;;;1.77;;
53519;SDS011;39397;53.204;5.778;2022-10-24T07:03:40;5.75;;;1.42;;
53519;SDS011;39397;53.204;5.778;2022-10-24T07:06:07;5.88;;;1.23;;
53519;SDS011;39397;53.204;5.778;2022-10-24T07:08:34;9.00;;;1.65;;
53519;SDS011;39397;53.204;5.778;2022-10-24T07:11:00;8.25;;;1.33;;
53519;SDS011;39397;53.204;5.778;2022-10-24T07:13:26;4.20;;;1.10;;
53519;SDS011;39397;53.204;5.778;2022-10-24T07:15:52;4.95;;;1.30;;
53519;SDS011;39397;53.204;5.778;2022-10-24T07:18:19;6.97;;;1.42;;
53519;SDS011;39397;53.204;5.778;2022-10-24T07:20:45;7.30;;;1.27;;
53519;SDS011;39397;53.204;5.778;2022-10-24T07:23:12;5.18;;;1.08;;
53519;SDS011;39397;53.204;5.778;2022-10-24T07:25:38;5.30;;;1.17;;
53519;SDS011;39397;53.204;5.778;2022-10-24T07:28:05;10.25;;;1.60;;
53519;SDS011;39397;53.204;5.778;2022-10-24T07:30:31;7.97;;;1.27;;
53519;SDS011;39397;53.204;5.778;2022-10-24T07:32:57;8.90;;;2.38;;
53519;SDS011;39397;53.204;5.778;2022-10-24T07:35:23;14.27;;;1.65;;
53519;SDS011;39397;53.204;5.778;2022-10-24T07:37:49;10.60;;;1.70;;
53519;SDS011;39397;53.204;5.778;2022-10-24T07:40:16;5.55;;;1.17;;
53519;SDS011;39397;53.204;5.778;2022-10-24T07:42:42;8.35;;;1.73;;
53519;SDS011;39397;53.204;5.778;2022-10-24T07:45:07;6.47;;;1.00;;
53519;SDS011;39397;53.204;5.778;2022-10-24T07:47:34;5.78;;;1.10;;
53519;SDS011;39397;53.204;5.778;2022-10-24T07:49:59;9.27;;;1.65;;
53519;SDS011;39397;53.204;5.778;2022-10-24T07:52:25;7.43;;;2.13;;
53519;SDS011;39397;53.204;5.778;2022-10-24T07:54:51;8.55;;;1.48;;
53519;SDS011;39397;53.204;5.778;2022-10-24T07:57:18;5.70;;;1.20;;
53519;SDS011;39397;53.204;5.778;2022-10-24T07:59:44;9.02;;;1.33;;
53519;SDS011;39397;53.204;5.778;2022-10-24T08:02:10;6.30;;;1.30;;
53519;SDS011;39397;53.204;5.778;2022-10-24T08:04:36;9.88;;;1.60;;
53519;SDS011;39397;53.204;5.778;2022-10-24T08:07:02;5.03;;;1.10;;
53519;SDS011;39397;53.204;5.778;2022-10-24T08:09:28;11.02;;;1.42;;
53519;SDS011;39397;53.204;5.778;2022-10-24T08:11:54;8.60;;;1.13;;
53519;SDS011;39397;53.204;5.778;2022-10-24T08:14:19;7.40;;;1.10;;
53519;SDS011;39397;53.204;5.778;2022-10-24T08:16:45;6.05;;;1.67;;
53519;SDS011;39397;53.204;5.778;2022-10-24T08:19:11;7.38;;;1.20;;
53519;SDS011;39397;53.204;5.778;2022-10-24T08:21:37;6.53;;;1.55;;
53519;SDS011;39397;53.204;5.778;2022-10-24T08:24:03;9.82;;;1.45;;
53519;SDS011;39397;53.204;5.778;2022-10-24T08:26:29;8.00;;;1.73;;
53519;SDS011;39397;53.204;5.778;2022-10-24T08:28:55;7.18;;;1.42;;
53519;SDS011;39397;53.204;5.778;2022-10-24T08:31:22;7.95;;;1.38;;
53519;SDS011;39397;53.204;5.778;2022-10-24T08:33:53;6.80;;;1.35;;
53519;SDS011;39397;53.204;5.778;2022-10-24T08:36:26;5.00;;;1.20;;
53519;SDS011;39397;53.204;5.778;2022-10-24T08:41:36;8.38;;;1.55;;
53519;SDS011;39397;53.204;5.778;2022-10-24T08:44:04;7.00;;;1.10;;
53519;SDS011;39397;53.204;5.778;2022-10-24T08:49:27;9.00;;;1.33;;
53519;SDS011;39397;53.204;5.778;2022-10-24T08:54:45;6.78;;;1.73;;
53519;SDS011;39397;53.204;5.778;2022-10-24T08:57:16;8.40;;;1.20;;
53519;SDS011;39397;53.204;5.778;2022-10-24T08:59:46;6.75;;;1.23;;
53519;SDS011;39397;53.204;5.778;2022-10-24T09:02:21;6.78;;;1.30;;
53519;SDS011;39397;53.204;5.778;2022-10-24T09:04:58;10.30;;;1.50;;
53519;SDS011;39397;53.204;5.778;2022-10-24T09:07:27;6.88;;;1.63;;
53519;SDS011;39397;53.204;5.778;2022-10-24T09:12:54;9.52;;;1.20;;
53519;SDS011;39397;53.204;5.778;2022-10-24T09:15:23;7.72;;;1.38;;
53519;SDS011;39397;53.204;5.778;2022-10-24T09:17:53;6.53;;;1.50;;
53519;SDS011;39397;53.204;5.778;2022-10-24T09:22:54;5.90;;;1.20;;
53519;SDS011;39397;53.204;5.778;2022-10-24T09:25:27;7.80;;;1.40;;
53519;SDS011;39397;53.204;5.778;2022-10-24T09:27:57;5.75;;;1.33;;
53519;SDS011;39397;53.204;5.778;2022-10-24T09:30:26;5.22;;;1.38;;
53519;SDS011;39397;53.204;5.778;2022-10-24T09:32:53;7.53;;;1.40;;
53519;SDS011;39397;53.204;5.778;2022-10-24T09:35:25;9.43;;;1.60;;
53519;SDS011;39397;53.204;5.778;2022-10-24T09:37:56;10.50;;;1.63;;
53519;SDS011;39397;53.204;5.778;2022-10-24T09:40:24;9.57;;;1.38;;
53519;SDS011;39397;53.204;5.778;2022-10-24T09:47:59;7.07;;;1.10;;
53519;SDS011;39397;53.204;5.778;2022-10-24T09:50:27;8.80;;;1.42;;
53519;SDS011;39397;53.204;5.778;2022-10-24T09:52:56;11.00;;;2.22;;
53519;SDS011;39397;53.204;5.778;2022-10-24T09:55:24;8.50;;;1.63;;
53519;SDS011;39397;53.204;5.778;2022-10-24T09:57:53;16.17;;;2.78;;
53519;SDS011;39397;53.204;5.778;2022-10-24T10:00:26;6.78;;;1.75;;
53519;SDS011;39397;53.204;5.778;2022-10-24T10:03:37;11.23;;;2.50;;
53519;SDS011;39397;53.204;5.778;2022-10-24T10:05:46;12.52;;;2.00;;
53519;SDS011;39397;53.204;5.778;2022-10-24T10:08:30;9.63;;;1.95;;
53519;SDS011;39397;53.204;5.778;2022-10-24T10:11:16;13.88;;;2.10;;
53519;SDS011;39397;53.204;5.778;2022-10-24T10:13:51;13.73;;;2.17;;
53519;SDS011;39397;53.204;5.778;2022-10-24T10:16:20;8.70;;;1.67;;
53519;SDS011;39397;53.204;5.778;2022-10-24T10:19:05;10.32;;;2.25;;
53519;SDS011;39397;53.204;5.778;2022-10-24T10:26:59;12.30;;;2.50;;
53519;SDS011;39397;53.204;5.778;2022-10-24T10:29:26;10.75;;;2.17;;
53519;SDS011;39397;53.204;5.778;2022-10-24T10:31:55;14.27;;;2.50;;
53519;SDS011;39397;53.204;5.778;2022-10-24T10:34:31;14.05;;;2.35;;
53519;SDS011;39397;53.204;5.778;2022-10-24T10:37:24;13.45;;;2.40;;
53519;SDS011;39397;53.204;5.778;2022-10-24T10:45:32;13.27;;;3.15;;
53519;SDS011;39397;53.204;5.778;2022-10-24T10:53:47;14.73;;;2.85;;
53519;SDS011;39397;53.204;5.778;2022-10-24T11:07:34;12.70;;;2.28;;
53519;SDS011;39397;53.204;5.778;2022-10-24T11:10:11;12.52;;;2.42;;
53519;SDS011;39397;53.204;5.778;2022-10-24T11:12:43;9.40;;;2.15;;
53519;SDS011;39397;53.204;5.778;2022-10-24T11:17:57;14.20;;;2.85;;
53519;SDS011;39397;53.204;5.778;2022-10-24T11:20:32;11.88;;;2.15;;
53519;SDS011;39397;53.204;5.778;2022-10-24T11:26:40;14.82;;;2.60;;
53519;SDS011;39397;53.204;5.778;2022-10-24T11:31:51;9.68;;;2.25;;
53519;SDS011;39397;53.204;5.778;2022-10-24T11:47:28;13.52;;;2.17;;
53519;SDS011;39397;53.204;5.778;2022-10-24T11:50:06;13.15;;;2.28;;
53519;SDS011;39397;53.204;5.778;2022-10-24T11:52:56;10.85;;;2.42;;
53519;SDS011;39397;53.204;5.778;2022-10-24T11:55:27;12.15;;;1.75;;
53519;SDS011;39397;53.204;5.778;2022-10-24T11:58:02;12.20;;;2.45;;
53519;SDS011;39397;53.204;5.778;2022-10-24T12:00:30;10.75;;;2.10;;
53519;SDS011;39397;53.204;5.778;2022-10-24T12:14:32;12.10;;;2.25;;
53519;SDS011;39397;53.204;5.778;2022-10-24T12:19:41;10.52;;;1.60;;
53519;SDS011;39397;53.204;5.778;2022-10-24T12:22:16;7.20;;;1.30;;
53519;SDS011;39397;53.204;5.778;2022-10-24T12:24:47;6.22;;;1.17;;
53519;SDS011;39397;53.204;5.778;2022-10-24T12:27:38;9.25;;;1.70;;
53519;SDS011;39397;53.204;5.778;2022-10-24T12:32:54;7.07;;;1.30;;
53519;SDS011;39397;53.204;5.778;2022-10-24T12:35:53;8.35;;;1.75;;
53519;SDS011;39397;53.204;5.778;2022-10-24T12:40:56;10.15;;;1.48;;
53519;SDS011;39397;53.204;5.778;2022-10-24T12:43:31;8.50;;;1.45;;
53519;SDS011;39397;53.204;5.778;2022-10-24T12:48:40;8.32;;;1.15;;
53519;SDS011;39397;53.204;5.778;2022-10-24T12:53:59;11.18;;;1.60;;
53519;SDS011;39397;53.204;5.778;2022-10-24T12:56:26;7.65;;;1.83;;
53519;SDS011;39397;53.204;5.778;2022-10-24T13:01:44;13.10;;;2.08;;
53519;SDS011;39397;53.204;5.778;2022-10-24T13:04:23;8.73;;;1.50;;
53519;SDS011;39397;53.204;5.778;2022-10-24T13:17:20;12.00;;;2.22;;
53519;SDS011;39397;53.204;5.778;2022-10-24T13:20:44;12.68;;;1.98;;
53519;SDS011;39397;53.204;5.778;2022-10-24T13:23:01;12.23;;;1.77;;
53519;SDS011;39397;53.204;5.778;2022-10-24T13:25:36;8.65;;;1.38;;
53519;SDS011;39397;53.204;5.778;2022-10-24T13:30:43;13.10;;;2.22;;
53519;SDS011;39397;53.204;5.778;2022-10-24T13:36:16;8.93;;;1.45;;
53519;SDS011;39397;53.204;5.778;2022-10-24T13:38:47;8.82;;;1.95;;
53519;SDS011;39397;53.204;5.778;2022-10-24T13:46:52;13.15;;;2.28;;
53519;SDS011;39397;53.204;5.778;2022-10-24T13:49:32;10.48;;;1.70;;
53519;SDS011;39397;53.204;5.778;2022-10-24T13:52:17;9.25;;;1.80;;
53519;SDS011;39397;53.204;5.778;2022-10-24T13:54:51;12.35;;;2.85;;
53519;SDS011;39397;53.204;5.778;2022-10-24T13:57:48;11.27;;;2.08;;
53519;SDS011;39397;53.204;5.778;2022-10-24T14:00:24;14.90;;;1.98;;
53519;SDS011;39397;53.204;5.778;2022-10-24T14:02:56;10.88;;;1.80;;
53519;SDS011;39397;53.204;5.778;2022-10-24T14:05:30;7.13;;;1.33;;
53519;SDS011;39397;53.204;5.778;2022-10-24T14:07:58;9.05;;;1.92;;
53519;SDS011;39397;53.204;5.778;2022-10-24T14:10:25;9.45;;;1.75;;
53519;SDS011;39397;53.204;5.778;2022-10-24T14:12:51;5.57;;;1.40;;
53519;SDS011;39397;53.204;5.778;2022-10-24T14:15:22;13.63;;;1.92;;
53519;SDS011;39397;53.204;5.778;2022-10-24T14:17:55;8.95;;;1.85;;
53519;SDS011;39397;53.204;5.778;2022-10-24T14:20:33;11.15;;;1.75;;
53519;SDS011;39397;53.204;5.778;2022-10-24T14:23:00;10.32;;;2.00;;
53519;SDS011;39397;53.204;5.778;2022-10-24T14:25:29;10.70;;;1.77;;
53519;SDS011;39397;53.204;5.778;2022-10-24T14:27:59;14.10;;;1.73;;
53519;SDS011;39397;53.204;5.778;2022-10-24T14:30:28;13.52;;;1.48;;
53519;SDS011;39397;53.204;5.778;2022-10-24T14:33:02;7.80;;;1.90;;
53519;SDS011;39397;53.204;5.778;2022-10-24T14:35:40;17.52;;;2.97;;
53519;SDS011;39397;53.204;5.778;2022-10-24T14:38:06;9.13;;;1.80;;
53519;SDS011;39397;53.204;5.778;2022-10-24T14:40:34;11.93;;;1.77;;
53519;SDS011;39397;53.204;5.778;2022-10-24T14:43:00;9.00;;;1.48;;
53519;SDS011;39397;53.204;5.778;2022-10-24T14:45:28;11.05;;;2.15;;
53519;SDS011;39397;53.204;5.778;2022-10-24T14:47:56;12.95;;;1.83;;
53519;SDS011;39397;53.204;5.778;2022-10-24T14:53:25;9.88;;;1.77;;
53519;SDS011;39397;53.204;5.778;2022-10-24T14:56:01;12.70;;;2.30;;
53519;SDS011;39397;53.204;5.778;2022-10-24T14:58:30;10.80;;;2.35;;
53519;SDS011;39397;53.204;5.778;2022-10-24T15:00:59;11.00;;;1.77;;
53519;SDS011;39397;53.204;5.778;2022-10-24T15:03:26;13.50;;;1.90;;
53519;SDS011;39397;53.204;5.778;2022-10-24T15:05:56;11.00;;;1.70;;
53519;SDS011;39397;53.204;5.778;2022-10-24T15:08:34;9.05;;;1.48;;
53519;SDS011;39397;53.204;5.778;2022-10-24T15:11:03;10.85;;;1.63;;
53519;SDS011;39397;53.204;5.778;2022-10-24T15:13:43;11.68;;;2.20;;
53519;SDS011;39397;53.204;5.778;2022-10-24T15:16:19;14.25;;;2.15;;
53519;SDS011;39397;53.204;5.778;2022-10-24T15:18:59;11.57;;;1.83;;
53519;SDS011;39397;53.204;5.778;2022-10-24T15:21:30;13.23;;;2.70;;
53519;SDS011;39397;53.204;5.778;2022-10-24T15:24:00;9.68;;;1.65;;
53519;SDS011;39397;53.204;5.778;2022-10-24T15:26:32;9.27;;;1.65;;
53519;SDS011;39397;53.204;5.778;2022-10-24T15:31:26;11.57;;;1.65;;
53519;SDS011;39397;53.204;5.778;2022-10-24T15:33:53;15.35;;;1.67;;
53519;SDS011;39397;53.204;5.778;2022-10-24T15:36:24;8.25;;;1.65;;
53519;SDS011;39397;53.204;5.778;2022-10-24T15:38:59;8.68;;;1.60;;
53519;SDS011;39397;53.204;5.778;2022-10-24T15:41:28;10.80;;;1.77;;
53519;SDS011;39397;53.204;5.778;2022-10-24T15:43:54;12.13;;;2.03;;
53519;SDS011;39397;53.204;5.778;2022-10-24T15:46:21;8.15;;;1.70;;
53519;SDS011;39397;53.204;5.778;2022-10-24T15:48:47;10.20;;;1.90;;
53519;SDS011;39397;53.204;5.778;2022-10-24T15:51:20;11.48;;;1.70;;
53519;SDS011;39397;53.204;5.778;2022-10-24T15:53:47;11.90;;;2.00;;
53519;SDS011;39397;53.204;5.778;2022-10-24T15:56:14;13.90;;;1.88;;
53519;SDS011;39397;53.204;5.778;2022-10-24T15:58:40;18.23;;;2.17;;
53519;SDS011;39397;53.204;5.778;2022-10-24T16:01:09;10.43;;;1.67;;
53519;SDS011;39397;53.204;5.778;2022-10-24T16:03:51;10.23;;;1.95;;
53519;SDS011;39397;53.204;5.778;2022-10-24T16:06:16;8.65;;;2.00;;
53519;SDS011;39397;53.204;5.778;2022-10-24T16:08:42;10.98;;;1.70;;
53519;SDS011;39397;53.204;5.778;2022-10-24T16:11:08;11.63;;;1.77;;
53519;SDS011;39397;53.204;5.778;2022-10-24T16:13:35;8.25;;;1.33;;
53519;SDS011;39397;53.204;5.778;2022-10-24T16:16:01;12.40;;;2.72;;
53519;SDS011;39397;53.204;5.778;2022-10-24T16:18:27;11.35;;;2.95;;
53519;SDS011;39397;53.204;5.778;2022-10-24T16:20:52;13.15;;;1.98;;
53519;SDS011;39397;53.204;5.778;2022-10-24T16:23:18;13.38;;;1.88;;
53519;SDS011;39397;53.204;5.778;2022-10-24T16:25:44;13.18;;;2.88;;
53519;SDS011;39397;53.204;5.778;2022-10-24T16:28:10;14.10;;;2.22;;
53519;SDS011;39397;53.204;5.778;2022-10-24T16:30:37;15.02;;;2.15;;
53519;SDS011;39397;53.204;5.778;2022-10-24T16:33:03;11.30;;;2.22;;
53519;SDS011;39397;53.204;5.778;2022-10-24T16:35:30;11.35;;;2.55;;
53519;SDS011;39397;53.204;5.778;2022-10-24T16:37:58;18.88;;;2.33;;
53519;SDS011;39397;53.204;5.778;2022-10-24T16:40:25;12.02;;;2.15;;
53519;SDS011;39397;53.204;5.778;2022-10-24T16:42:52;12.80;;;3.08;;
53519;SDS011;39397;53.204;5.778;2022-10-24T16:45:19;18.17;;;2.03;;
53519;SDS011;39397;53.204;5.778;2022-10-24T16:47:46;17.17;;;2.25;;
53519;SDS011;39397;53.204;5.778;2022-10-24T16:50:16;20.58;;;2.75;;
53519;SDS011;39397;53.204;5.778;2022-10-24T16:52:48;16.85;;;2.75;;
53519;SDS011;39397;53.204;5.778;2022-10-24T16:55:24;14.07;;;3.03;;
53519;SDS011;39397;53.204;5.778;2022-10-24T16:57:50;16.75;;;2.60;;
53519;SDS011;39397;53.204;5.778;2022-10-24T17:00:17;17.85;;;2.97;;
53519;SDS011;39397;53.204;5.778;2022-10-24T17:02:45;17.75;;;2.65;;
53519;SDS011;39397;53.204;5.778;2022-10-24T17:05:12;17.35;;;3.03;;
53519;SDS011;39397;53.204;5.778;2022-10-24T17:07:39;18.38;;;3.28;;
53519;SDS011;39397;53.204;5.778;2022-10-24T17:10:06;16.67;;;2.70;;
53519;SDS011;39397;53.204;5.778;2022-10-24T17:12:33;15.30;;;2.58;;
53519;SDS011;39397;53.204;5.778;2022-10-24T17:14:59;17.13;;;2.40;;
53519;SDS011;39397;53.204;5.778;2022-10-24T17:17:25;10.73;;;2.25;;
53519;SDS011;39397;53.204;5.778;2022-10-24T17:19:51;18.75;;;2.58;;
53519;SDS011;39397;53.204;5.778;2022-10-24T17:22:17;19.38;;;3.13;;
53519;SDS011;39397;53.204;5.778;2022-10-24T17:24:46;26.02;;;6.35;;
53519;SDS011;39397;53.204;5.778;2022-10-24T17:27:19;16.83;;;3.22;;